Time;durP1;ratioP1;P1;durP2;ratioP2;P2;SDS_P1;SDS_P2;PMS_P1;PMS_P2;Temp;Humidity;BMP_temperature;BMP_pressure;BME280_temperature;BME280_humidity;BME280_pressure;Samples;Min_cycle;Max_cycle;Signal;HPM_P1;HPM_P2
2022/07/02 00:00:05;;;;;;;6.93;5.43;;;15.80;99.90;;;;;;4957231;29;20322;-47
2022/07/02 00:02:43;;;;;;;6.43;5.80;;;15.80;99.90;;;;;;4956961;28;20265;-47
2022/07/02 00:05:14;;;;;;;7.00;5.73;;;15.80;99.90;;;;;;4957526;29;20231;-47
2022/07/02 00:07:42;;;;;;;5.80;5.03;;;15.80;99.90;;;;;;4957202;29;20223;-46
2022/07/02 00:10:11;;;;;;;6.07;5.47;;;15.80;99.90;;;;;;4957354;29;20646;-48
2022/07/02 00:12:40;;;;;;;6.70;6.10;;;15.70;99.90;;;;;;4960238;28;20230;-47
2022/07/02 00:15:10;;;;;;;6.13;5.50;;;15.70;99.90;;;;;;4956904;29;20297;-48
2022/07/02 00:17:40;;;;;;;5.83;5.27;;;15.70;99.90;;;;;;4957022;29;20236;-47
2022/07/02 00:20:10;;;;;;;6.13;5.53;;;15.60;99.90;;;;;;4948898;29;20318;-48
2022/07/02 00:22:40;;;;;;;6.60;5.90;;;15.70;99.90;;;;;;4945701;29;20239;-47
2022/07/02 00:25:09;;;;;;;6.40;5.60;;;15.70;99.90;;;;;;4942282;29;20607;-47
2022/07/02 00:27:41;;;;;;;7.50;5.80;;;15.60;99.90;;;;;;4956881;29;20724;-47
2022/07/02 00:30:13;;;;;;;7.80;5.60;;;15.60;99.90;;;;;;4956683;29;20235;-47
2022/07/02 00:32:45;;;;;;;7.07;5.80;;;15.60;99.90;;;;;;4956125;29;20239;-48
2022/07/02 00:35:15;;;;;;;6.57;5.63;;;15.50;99.90;;;;;;4940206;29;20739;-47
2022/07/02 00:37:44;;;;;;;6.63;5.37;;;15.50;99.90;;;;;;4956705;29;20718;-47
2022/07/02 00:40:14;;;;;;;7.57;6.17;;;15.50;99.90;;;;;;4956821;29;20231;-47
2022/07/02 00:42:44;;;;;;;6.83;6.13;;;15.50;99.90;;;;;;4956029;29;20720;-47
2022/07/02 00:45:12;;;;;;;6.30;5.10;;;15.50;99.90;;;;;;4956412;29;20238;-47
2022/07/02 00:47:44;;;;;;;6.07;5.47;;;15.50;99.90;;;;;;4956415;29;20694;-47
2022/07/02 00:50:12;;;;;;;6.90;5.70;;;15.50;99.90;;;;;;4948696;29;20294;-47
2022/07/02 00:52:41;;;;;;;7.47;5.57;;;15.50;99.90;;;;;;4956174;29;20234;-48
2022/07/02 00:55:10;;;;;;;7.53;6.10;;;15.50;99.90;;;;;;4956291;29;20579;-47
2022/07/02 00:57:38;;;;;;;8.30;5.80;;;15.40;99.90;;;;;;4956156;28;20642;-47
2022/07/02 01:00:08;;;;;;;6.37;5.60;;;15.40;99.90;;;;;;4937391;29;20596;-48
2022/07/02 01:02:38;;;;;;;6.53;5.70;;;15.40;99.90;;;;;;4936546;29;20251;-47
2022/07/02 01:05:15;;;;;;;5.70;5.10;;;15.40;99.90;;;;;;4936377;29;20302;-47
2022/07/02 01:07:47;;;;;;;6.87;5.07;;;15.30;99.90;;;;;;4936732;29;20228;-48
2022/07/02 01:10:18;;;;;;;5.53;4.87;;;15.30;99.90;;;;;;4937264;29;20235;-47
2022/07/02 01:12:47;;;;;;;7.80;5.00;;;15.30;99.90;;;;;;4939979;29;20231;-48
2022/07/02 01:15:17;;;;;;;6.20;5.10;;;15.30;99.90;;;;;;4936964;29;20704;-48
2022/07/02 01:17:45;;;;;;;5.70;5.10;;;15.30;99.90;;;;;;4940258;29;20688;-47
2022/07/02 01:20:15;;;;;;;5.60;4.60;;;15.30;99.90;;;;;;4944435;29;20255;-47
2022/07/02 01:22:45;;;;;;;4.40;4.00;;;15.30;99.90;;;;;;4936725;29;20703;-47
2022/07/02 01:25:13;;;;;;;5.10;4.00;;;15.30;99.90;;;;;;4945201;29;20234;-48
2022/07/02 01:27:41;;;;;;;6.77;4.03;;;15.20;99.90;;;;;;4955755;29;20263;-47
2022/07/02 01:30:11;;;;;;;7.57;4.23;;;15.20;99.90;;;;;;4955916;29;20231;-46
2022/07/02 01:32:39;;;;;;;6.77;3.97;;;15.20;99.90;;;;;;4955123;29;20278;-47
2022/07/02 01:35:09;;;;;;;7.13;4.10;;;15.20;99.90;;;;;;4955776;29;20278;-49
2022/07/02 01:37:39;;;;;;;6.27;4.30;;;15.10;99.90;;;;;;4955349;29;20587;-47
2022/07/02 01:40:10;;;;;;;6.10;4.30;;;15.20;99.90;;;;;;4937930;29;20600;-47
2022/07/02 01:42:39;;;;;;;5.70;3.80;;;15.10;99.90;;;;;;4938899;29;20246;-48
2022/07/02 01:45:08;;;;;;;4.90;4.17;;;15.10;99.90;;;;;;4936541;29;20224;-47
2022/07/02 01:47:37;;;;;;;6.47;4.40;;;15.10;99.90;;;;;;4932769;29;20650;-47
2022/07/02 01:50:06;;;;;;;6.47;4.10;;;15.10;99.90;;;;;;4930326;29;20279;-47
2022/07/02 01:52:34;;;;;;;5.87;4.17;;;15.10;99.90;;;;;;4936260;29;20232;-47
2022/07/02 01:55:04;;;;;;;5.70;4.40;;;15.10;99.90;;;;;;4936313;29;20573;-48
2022/07/02 01:57:36;;;;;;;6.87;4.40;;;15.00;99.90;;;;;;4935908;29;20228;-47
2022/07/02 02:00:14;;;;;;;4.93;4.43;;;15.00;99.90;;;;;;4935892;29;20266;-47
2022/07/02 02:02:42;;;;;;;5.23;4.47;;;15.00;99.90;;;;;;4935778;29;20597;-48
2022/07/02 02:05:11;;;;;;;7.40;4.50;;;15.00;99.90;;;;;;4936139;29;20236;-48
2022/07/02 02:07:39;;;;;;;7.93;5.50;;;15.00;99.90;;;;;;4935741;29;20267;-46
2022/07/02 02:10:09;;;;;;;6.43;4.77;;;15.00;99.90;;;;;;4935622;29;20240;-47
2022/07/02 02:12:38;;;;;;;6.97;5.20;;;15.00;99.90;;;;;;4920934;29;20292;-47
2022/07/02 02:15:07;;;;;;;7.30;4.43;;;14.90;99.90;;;;;;4916442;29;20237;-47
2022/07/02 02:17:36;;;;;;;4.90;4.27;;;14.90;99.90;;;;;;4920120;29;20277;-47
2022/07/02 02:20:04;;;;;;;5.77;4.90;;;15.00;99.90;;;;;;4920870;29;20256;-47
2022/07/02 02:22:33;;;;;;;6.60;4.93;;;15.00;99.90;;;;;;4916927;29;20589;-47
2022/07/02 02:25:01;;;;;;;5.07;4.67;;;14.90;99.90;;;;;;4926164;29;20232;-50
2022/07/02 02:27:30;;;;;;;5.80;4.67;;;14.90;99.90;;;;;;4935189;29;20739;-48
2022/07/02 02:30:00;;;;;;;5.07;4.50;;;14.90;99.90;;;;;;4935454;29;20266;-47
2022/07/02 02:32:28;;;;;;;7.20;4.77;;;14.80;99.90;;;;;;4935384;29;20232;-46
2022/07/02 02:34:56;;;;;;;6.13;4.47;;;14.80;99.90;;;;;;4935469;29;20235;-47
2022/07/02 02:37:25;;;;;;;5.57;4.80;;;14.80;99.90;;;;;;4935375;29;20232;-47
2022/07/02 02:39:53;;;;;;;8.03;5.07;;;14.70;99.90;;;;;;4935363;29;20713;-48
2022/07/02 02:42:22;;;;;;;5.57;5.00;;;14.70;99.90;;;;;;4932942;29;20256;-47
2022/07/02 02:44:50;;;;;;;5.30;4.63;;;14.80;99.90;;;;;;4954756;29;20227;-48
2022/07/02 02:47:21;;;;;;;6.80;4.80;;;14.80;99.90;;;;;;4953384;29;20239;-47
2022/07/02 02:49:50;;;;;;;4.97;4.47;;;14.70;99.90;;;;;;4943345;29;20234;-47
2022/07/02 02:52:18;;;;;;;6.80;4.83;;;14.70;99.90;;;;;;4935428;29;20219;-48
2022/07/02 02:54:46;;;;;;;5.87;4.97;;;14.70;99.90;;;;;;4935469;29;20240;-47
2022/07/02 02:57:15;;;;;;;5.80;4.40;;;14.60;99.90;;;;;;4935300;29;20230;-47
2022/07/02 02:59:43;;;;;;;6.20;4.93;;;14.70;99.90;;;;;;4935471;29;20247;-48
2022/07/02 03:02:11;;;;;;;6.50;4.40;;;14.70;99.90;;;;;;4934882;29;20746;-47
2022/07/02 03:04:40;;;;;;;5.13;4.60;;;14.70;99.90;;;;;;4934991;29;20236;-47
2022/07/02 03:07:09;;;;;;;6.87;5.77;;;14.70;99.90;;;;;;4935425;29;20275;-47
2022/07/02 03:09:37;;;;;;;6.03;4.70;;;14.60;99.90;;;;;;4949550;29;20746;-48
2022/07/02 03:12:06;;;;;;;6.30;4.70;;;14.60;99.90;;;;;;4942614;29;20692;-47
2022/07/02 03:14:34;;;;;;;4.93;4.53;;;14.60;99.90;;;;;;4934908;29;20228;-47
2022/07/02 03:17:02;;;;;;;5.00;4.47;;;14.60;99.90;;;;;;4935427;29;20640;-47
2022/07/02 03:19:31;;;;;;;5.00;4.50;;;14.60;99.90;;;;;;4949706;29;20287;-47
2022/07/02 03:22:00;;;;;;;6.00;4.50;;;14.60;99.90;;;;;;4954490;29;20756;-46
2022/07/02 03:24:28;;;;;;;5.57;4.80;;;14.60;99.90;;;;;;4953789;29;20320;-48
2022/07/02 03:26:56;;;;;;;6.77;4.77;;;14.60;99.90;;;;;;4954721;28;20235;-47
2022/07/02 03:29:24;;;;;;;6.07;4.90;;;14.60;99.90;;;;;;4958076;29;20643;-48
2022/07/02 03:31:52;;;;;;;8.63;4.43;;;14.60;99.90;;;;;;4957379;29;20267;-47
2022/07/02 03:34:21;;;;;;;6.63;4.70;;;14.70;99.90;;;;;;4958140;28;20749;-47
2022/07/02 03:36:49;;;;;;;8.17;4.87;;;14.70;99.90;;;;;;4957498;29;20267;-48
2022/07/02 03:39:18;;;;;;;5.57;4.70;;;14.70;99.90;;;;;;4952045;29;20284;-47
2022/07/02 03:41:46;;;;;;;5.30;4.57;;;14.70;99.90;;;;;;4941550;29;20668;-47
2022/07/02 03:44:14;;;;;;;4.70;4.20;;;14.70;99.90;;;;;;4938398;29;20377;-47
2022/07/02 03:46:43;;;;;;;5.87;4.53;;;14.80;99.90;;;;;;4938233;29;20299;-47
2022/07/02 03:49:11;;;;;;;6.47;4.53;;;14.80;99.90;;;;;;4938445;29;20234;-47
2022/07/02 03:51:39;;;;;;;5.47;4.60;;;14.80;99.90;;;;;;4938498;29;20235;-47
2022/07/02 03:54:07;;;;;;;5.57;4.27;;;14.90;99.90;;;;;;4938287;29;20268;-47
2022/07/02 03:56:37;;;;;;;7.70;4.27;;;15.00;99.90;;;;;;4937973;29;20231;-47
2022/07/02 03:59:05;;;;;;;5.63;3.60;;;15.00;99.90;;;;;;4938479;29;20232;-47
2022/07/02 04:01:33;;;;;;;5.20;4.30;;;15.10;99.90;;;;;;4937600;29;20581;-47
2022/07/02 04:04:01;;;;;;;5.73;4.07;;;15.20;99.90;;;;;;4938058;29;20234;-47
2022/07/02 04:06:29;;;;;;;5.53;4.40;;;15.30;99.90;;;;;;4938227;29;20565;-47
2022/07/02 04:08:57;;;;;;;4.60;3.93;;;15.40;99.90;;;;;;4937638;29;20275;-47
2022/07/02 04:11:26;;;;;;;5.57;3.63;;;15.50;99.90;;;;;;4932853;29;20292;-48
2022/07/02 04:13:55;;;;;;;5.90;4.33;;;15.50;99.90;;;;;;4918806;29;20240;-47
2022/07/02 04:16:23;;;;;;;4.70;4.07;;;15.50;99.90;;;;;;4924362;29;20302;-48
2022/07/02 04:18:51;;;;;;;5.93;3.87;;;15.60;99.90;;;;;;4930752;29;20224;-47
2022/07/02 04:21:39;;;;;;;5.67;3.80;;;15.60;99.90;;;;;;4922319;29;20224;-48
2022/07/02 04:24:08;;;;;;;5.20;3.63;;;15.60;99.90;;;;;;4926184;29;20314;-47
2022/07/02 04:26:36;;;;;;;5.20;4.07;;;15.70;99.90;;;;;;4937583;29;20232;-48
2022/07/02 04:29:05;;;;;;;7.53;4.17;;;15.70;99.90;;;;;;4934226;29;20244;-47
2022/07/02 04:31:34;;;;;;;6.30;3.80;;;15.60;99.90;;;;;;4921651;29;20239;-47
2022/07/02 04:34:02;;;;;;;4.17;3.77;;;15.80;99.90;;;;;;4931605;29;20676;-48
2022/07/02 04:36:30;;;;;;;4.10;3.70;;;15.80;99.90;;;;;;4923433;29;20240;-48
2022/07/02 04:39:01;;;;;;;5.20;4.27;;;15.90;99.90;;;;;;4925373;29;20342;-47
2022/07/02 04:41:30;;;;;;;6.63;3.80;;;16.00;99.90;;;;;;4924133;29;20238;-49
2022/07/02 04:43:58;;;;;;;6.37;3.93;;;16.00;99.90;;;;;;4926033;29;20643;-47
2022/07/02 04:46:27;;;;;;;5.10;3.97;;;16.20;99.90;;;;;;4925818;29;20592;-47
2022/07/02 04:48:56;;;;;;;5.40;3.77;;;16.30;99.90;;;;;;4921185;29;20232;-47
2022/07/02 04:51:24;;;;;;;5.97;4.00;;;16.40;99.90;;;;;;4928886;29;20243;-48
2022/07/02 04:53:57;;;;;;;4.40;3.10;;;16.50;99.90;;;;;;4931612;29;20233;-47
2022/07/02 04:56:27;;;;;;;4.83;3.43;;;16.70;99.90;;;;;;4937572;29;20242;-48
2022/07/02 04:58:56;;;;;;;6.20;3.50;;;16.80;99.90;;;;;;4937402;29;20232;-47
2022/07/02 05:01:24;;;;;;;8.83;3.90;;;16.90;99.90;;;;;;4936083;29;20309;-47
2022/07/02 05:03:54;;;;;;;4.80;3.70;;;16.70;99.90;;;;;;4929272;29;20224;-48
2022/07/02 05:06:22;;;;;;;7.30;3.30;;;16.80;99.90;;;;;;4937183;29;20651;-47
2022/07/02 05:08:51;;;;;;;5.63;3.27;;;16.90;99.90;;;;;;4931071;29;20221;-48
2022/07/02 05:11:19;;;;;;;5.87;3.97;;;17.10;99.90;;;;;;4934458;29;20232;-47
2022/07/02 05:13:48;;;;;;;6.43;3.77;;;17.30;99.90;;;;;;4936559;29;20287;-50
2022/07/02 05:16:16;;;;;;;4.67;3.60;;;17.40;99.90;;;;;;4936933;29;20280;-47
2022/07/02 05:18:45;;;;;;;5.00;3.40;;;17.30;99.90;;;;;;4935004;29;20311;-47
2022/07/02 05:21:14;;;;;;;6.23;3.77;;;17.40;99.90;;;;;;4917992;29;20265;-47
2022/07/02 05:23:42;;;;;;;5.33;3.43;;;17.40;99.90;;;;;;4917541;29;20225;-48
2022/07/02 05:26:11;;;;;;;5.83;3.50;;;17.70;99.90;;;;;;4918031;29;20672;-46
2022/07/02 05:28:39;;;;;;;4.30;3.50;;;17.90;99.90;;;;;;4917674;29;20233;-48
2022/07/02 05:31:10;;;;;;;5.60;3.70;;;18.00;99.90;;;;;;4921167;29;20588;-48
2022/07/02 05:33:38;;;;;;;7.60;4.03;;;18.10;99.90;;;;;;4936414;29;20289;-48
2022/07/02 05:36:07;;;;;;;5.00;3.70;;;18.20;99.90;;;;;;4936804;29;20268;-48
2022/07/02 05:38:36;;;;;;;4.33;3.83;;;18.40;99.90;;;;;;4936511;29;20240;-48
2022/07/02 05:41:04;;;;;;;5.50;3.60;;;18.60;99.90;;;;;;4936561;29;20327;-48
2022/07/02 05:43:32;;;;;;;7.07;3.20;;;18.80;99.90;;;;;;4953453;29;20617;-48
2022/07/02 05:46:01;;;;;;;3.97;3.13;;;18.80;99.90;;;;;;4954956;29;20566;-48
2022/07/02 05:48:29;;;;;;;6.03;3.40;;;19.00;99.90;;;;;;4953367;29;20226;-48
2022/07/02 05:50:57;;;;;;;3.90;3.50;;;19.10;99.90;;;;;;4954266;28;20225;-49
2022/07/02 05:53:25;;;;;;;6.00;3.03;;;19.40;99.90;;;;;;4954541;29;20225;-49
2022/07/02 05:55:55;;;;;;;7.23;3.20;;;19.50;99.90;;;;;;4954651;29;20225;-49
2022/07/02 05:58:23;;;;;;;4.30;3.13;;;19.60;99.90;;;;;;4954620;29;20265;-49
2022/07/02 06:00:51;;;;;;;7.70;3.70;;;19.70;99.90;;;;;;4947862;29;20234;-48
2022/07/02 06:03:19;;;;;;;6.93;2.90;;;19.90;99.90;;;;;;4935617;29;20239;-49
2022/07/02 06:08:35;;;;;;;5.97;3.20;;;20.20;99.90;;;;;;4953613;29;20328;-49
2022/07/02 06:11:05;;;;;;;4.70;2.97;;;20.20;99.90;;;;;;4954249;29;20222;-50
2022/07/02 06:13:35;;;;;;;4.33;2.70;;;20.40;99.90;;;;;;4948224;29;20276;-49
2022/07/02 06:16:07;;;;;;;3.73;2.83;;;20.60;99.90;;;;;;4935104;29;20241;-48
2022/07/02 06:18:39;;;;;;;3.63;2.67;;;20.60;99.90;;;;;;4934882;29;20243;-49
2022/07/02 06:21:07;;;;;;;4.20;2.87;;;20.60;99.90;;;;;;4935523;29;20235;-48
2022/07/02 06:23:36;;;;;;;3.93;2.93;;;20.50;99.90;;;;;;4934992;29;20253;-50
2022/07/02 06:26:05;;;;;;;5.37;2.50;;;20.60;99.90;;;;;;4935062;29;20716;-48
2022/07/02 06:28:33;;;;;;;7.37;2.60;;;21.00;99.90;;;;;;4934709;29;20263;-48
2022/07/02 06:31:01;;;;;;;3.73;2.43;;;21.30;99.90;;;;;;4934508;29;20311;-49
2022/07/02 06:33:29;;;;;;;6.30;2.40;;;21.30;99.90;;;;;;4937588;29;20216;-49
2022/07/02 06:35:58;;;;;;;3.47;2.20;;;21.30;99.90;;;;;;4935050;29;20267;-48
2022/07/02 06:38:26;;;;;;;5.40;2.30;;;21.50;99.90;;;;;;4941134;29;20238;-49
2022/07/02 06:40:55;;;;;;;3.53;2.30;;;21.60;99.90;;;;;;4947169;29;20223;-48
2022/07/02 06:43:26;;;;;;;3.37;2.03;;;21.90;99.90;;;;;;4892668;29;1264137;-49
2022/07/02 06:45:54;;;;;;;4.53;2.03;;;21.90;99.90;;;;;;4934791;29;20241;-49
2022/07/02 06:48:22;;;;;;;4.27;2.00;;;22.10;99.90;;;;;;4934971;29;20232;-49
2022/07/02 06:50:50;;;;;;;4.83;2.60;;;22.20;99.90;;;;;;4932563;29;20231;-49
2022/07/02 06:53:18;;;;;;;3.57;2.83;;;22.00;99.90;;;;;;4916937;29;20236;-51
2022/07/02 06:55:47;;;;;;;4.40;2.00;;;21.80;99.90;;;;;;4916242;29;20241;-49
2022/07/02 06:58:15;;;;;;;6.87;2.20;;;22.00;99.90;;;;;;4915271;29;20234;-50
2022/07/02 07:00:44;;;;;;;5.40;2.70;;;22.30;99.90;;;;;;4912421;29;20263;-49
2022/07/02 07:03:13;;;;;;;4.33;2.13;;;22.20;99.90;;;;;;4916994;29;20327;-51
2022/07/02 07:05:46;;;;;;;4.53;2.47;;;22.30;99.90;;;;;;4919914;29;21342;-51
2022/07/02 07:08:14;;;;;;;3.40;2.03;;;22.50;99.90;;;;;;4919093;29;20324;-49
2022/07/02 07:10:45;;;;;;;4.30;2.47;;;22.80;99.90;;;;;;4916374;29;20235;-50
2022/07/02 07:13:13;;;;;;;3.27;1.83;;;22.80;99.90;;;;;;4917370;29;20243;-48
2022/07/02 07:15:41;;;;;;;4.17;2.10;;;22.80;99.90;;;;;;4918485;29;20231;-50
2022/07/02 07:18:12;;;;;;;4.37;2.00;;;22.90;99.90;;;;;;4920129;29;20239;-51
2022/07/02 07:20:41;;;;;;;5.63;2.20;;;22.90;99.90;;;;;;4916333;29;20695;-52
2022/07/02 07:23:09;;;;;;;3.13;1.60;;;23.10;99.90;;;;;;4916063;29;20323;-49
2022/07/02 07:25:38;;;;;;;4.53;1.70;;;23.40;99.90;;;;;;4917937;29;20235;-49
2022/07/02 07:28:13;;;;;;;4.33;1.97;;;23.60;99.90;;;;;;4917782;29;20238;-50
2022/07/02 07:30:42;;;;;;;7.43;1.80;;;23.70;99.90;;;;;;4916350;29;20604;-52
2022/07/02 07:33:12;;;;;;;4.30;1.80;;;23.60;99.90;;;;;;4917155;29;20236;-49
2022/07/02 07:35:40;;;;;;;4.43;1.53;;;23.80;99.90;;;;;;4918778;29;20287;-50
2022/07/02 07:38:09;;;;;;;4.03;1.60;;;23.90;99.90;;;;;;4919029;29;20232;-49
2022/07/02 07:40:37;;;;;;;4.37;1.60;;;23.90;99.90;;;;;;4916881;29;20787;-48
2022/07/02 07:43:06;;;;;;;4.07;1.50;;;24.20;99.90;;;;;;4930698;29;20723;-49
2022/07/02 07:45:34;;;;;;;2.80;1.40;;;24.20;99.90;;;;;;4935670;29;20728;-49
2022/07/02 07:48:03;;;;;;;2.70;1.17;;;24.20;99.90;;;;;;4939358;29;20716;-48
2022/07/02 07:50:33;;;;;;;4.63;1.40;;;24.40;99.90;;;;;;4946915;29;20263;-48
2022/07/02 07:53:01;;;;;;;3.53;1.30;;;24.70;99.90;;;;;;4951928;29;20236;-48
2022/07/02 07:55:30;;;;;;;4.47;1.37;;;24.80;99.90;;;;;;4950315;29;20231;-48
2022/07/02 07:58:00;;;;;;;5.83;1.60;;;25.00;99.90;;;;;;4957327;29;20766;-51
2022/07/02 08:00:29;;;;;;;4.17;1.43;;;25.00;99.90;;;;;;4955161;29;20288;-49
2022/07/02 08:02:58;;;;;;;2.40;1.00;;;25.40;99.90;;;;;;4957283;29;20229;-48
2022/07/02 08:05:26;;;;;;;4.30;1.80;;;25.60;99.90;;;;;;4957465;29;20233;-50
2022/07/02 08:07:56;;;;;;;3.67;1.30;;;25.80;99.90;;;;;;4940040;29;20726;-49
2022/07/02 08:10:24;;;;;;;3.37;1.27;;;25.60;99.90;;;;;;4938189;29;20768;-51
2022/07/02 08:12:52;;;;;;;3.63;1.27;;;25.80;99.90;;;;;;4942102;29;20231;-50
2022/07/02 08:15:20;;;;;;;2.70;1.40;;;25.90;99.90;;;;;;4953680;29;20743;-49
2022/07/02 08:17:48;;;;;;;3.40;1.30;;;25.80;99.90;;;;;;4952532;29;20228;-51
2022/07/02 08:20:17;;;;;;;3.73;1.33;;;26.00;99.90;;;;;;4953479;29;20278;-48
2022/07/02 08:22:46;;;;;;;2.57;1.50;;;26.10;99.90;;;;;;4950633;29;20713;-48
2022/07/02 08:25:16;;;;;;;4.30;1.57;;;26.20;99.90;;;;;;4947592;29;20269;-50
2022/07/02 08:27:44;;;;;;;3.37;1.23;;;26.30;99.90;;;;;;4956682;29;20277;-49
2022/07/02 08:30:13;;;;;;;3.17;1.27;;;26.50;99.90;;;;;;4956597;29;20571;-50
2022/07/02 08:32:41;;;;;;;3.73;1.57;;;26.80;99.90;;;;;;4950992;29;20620;-49
2022/07/02 08:35:14;;;;;;;5.90;1.67;;;26.90;99.90;;;;;;4945290;29;20317;-51
2022/07/02 08:37:42;;;;;;;3.17;1.10;;;26.80;99.90;;;;;;4938164;29;20273;-49
2022/07/02 08:40:11;;;;;;;4.83;1.33;;;26.90;99.90;;;;;;4947969;29;20261;-50
2022/07/02 08:42:42;;;;;;;4.37;1.37;;;27.00;99.90;;;;;;4946152;29;20240;-50
2022/07/02 08:45:12;;;;;;;3.67;1.07;;;27.00;99.90;;;;;;4948383;29;20239;-49
2022/07/02 08:47:42;;;;;;;2.57;1.20;;;26.90;99.90;;;;;;4953142;29;20580;-50
2022/07/02 08:50:11;;;;;;;5.13;1.13;;;27.10;99.90;;;;;;4952680;29;20234;-51
2022/07/02 08:52:40;;;;;;;3.43;1.10;;;27.50;99.90;;;;;;4953616;29;20235;-49
2022/07/02 08:55:14;;;;;;;4.30;1.20;;;27.30;99.90;;;;;;4952066;28;20578;-49
2022/07/02 08:57:45;;;;;;;3.57;1.20;;;27.10;99.90;;;;;;4952255;29;20241;-48
2022/07/02 09:00:14;;;;;;;5.30;1.20;;;27.00;99.90;;;;;;4950018;29;20226;-49
2022/07/02 09:02:43;;;;;;;2.23;1.10;;;27.00;99.90;;;;;;4939203;29;20227;-49
2022/07/02 09:05:13;;;;;;;4.87;1.20;;;27.20;99.90;;;;;;4937019;29;20286;-51
2022/07/02 09:07:42;;;;;;;3.17;0.90;;;27.30;99.90;;;;;;4950867;29;20242;-49
2022/07/02 09:10:11;;;;;;;3.73;1.10;;;27.50;99.90;;;;;;4941904;29;20282;-51
2022/07/02 09:12:41;;;;;;;3.93;1.03;;;27.10;99.90;;;;;;4944704;29;20230;-49
2022/07/02 09:15:12;;;;;;;3.77;1.17;;;27.30;99.90;;;;;;4945288;29;20293;-49
2022/07/02 09:17:42;;;;;;;3.93;1.07;;;27.40;99.90;;;;;;4943617;29;20232;-49
2022/07/02 09:20:11;;;;;;;3.50;1.10;;;27.30;99.90;;;;;;4951779;29;20237;-49
2022/07/02 09:22:42;;;;;;;3.57;1.03;;;27.10;99.90;;;;;;4952751;29;20571;-50
2022/07/02 09:25:13;;;;;;;2.70;1.10;;;27.20;99.90;;;;;;4954977;28;20238;-48
2022/07/02 09:27:41;;;;;;;4.03;1.00;;;27.00;99.90;;;;;;4955562;29;20556;-49
2022/07/02 09:30:13;;;;;;;3.00;1.03;;;27.10;99.90;;;;;;4945367;29;20246;-51
2022/07/02 09:32:43;;;;;;;4.70;0.80;;;26.80;99.90;;;;;;4947895;28;20269;-55
2022/07/02 09:35:19;;;;;;;3.53;1.10;;;26.00;99.90;;;;;;4942782;29;20231;-52
2022/07/02 09:37:48;;;;;;;3.43;1.10;;;25.50;99.90;;;;;;4937341;29;20242;-49
2022/07/02 09:40:17;;;;;;;4.30;1.20;;;25.90;99.90;;;;;;4936392;29;20238;-49
2022/07/02 09:42:49;;;;;;;3.03;1.10;;;26.40;99.90;;;;;;4951452;29;21333;-49
2022/07/02 09:45:20;;;;;;;4.33;1.17;;;26.50;99.90;;;;;;4945321;29;20250;-51
2022/07/02 09:47:49;;;;;;;5.20;1.30;;;26.50;99.90;;;;;;4945691;29;20227;-50
2022/07/02 09:50:19;;;;;;;3.17;1.00;;;26.80;99.90;;;;;;4947032;29;20240;-50
2022/07/02 09:52:49;;;;;;;3.97;1.10;;;27.10;99.90;;;;;;4954810;29;20223;-51
2022/07/02 09:55:24;;;;;;;3.03;1.10;;;27.40;99.90;;;;;;4943526;29;20229;-52
2022/07/02 09:57:53;;;;;;;3.37;1.10;;;27.80;99.90;;;;;;4941167;29;20282;-51
2022/07/02 10:00:25;;;;;;;3.53;1.17;;;27.40;99.10;;;;;;4940852;29;20699;-50
2022/07/02 10:02:55;;;;;;;2.97;1.10;;;26.50;99.90;;;;;;4938153;29;20243;-49
2022/07/02 10:05:25;;;;;;;4.90;1.00;;;26.20;99.90;;;;;;4946905;29;20238;-49
2022/07/02 10:07:54;;;;;;;2.10;1.10;;;26.90;99.90;;;;;;4955400;29;20250;-48
2022/07/02 10:10:33;;;;;;;3.50;0.90;;;26.90;99.90;;;;;;4946703;29;20290;-50
2022/07/02 10:13:02;;;;;;;4.37;1.00;;;26.20;99.90;;;;;;4954229;29;20254;-49
2022/07/02 10:15:33;;;;;;;2.37;0.90;;;25.90;99.90;;;;;;4954999;29;20248;-49
2022/07/02 10:18:02;;;;;;;3.33;1.10;;;25.60;99.90;;;;;;4945596;29;20227;-50
2022/07/02 10:20:31;;;;;;;1.87;0.90;;;25.60;99.90;;;;;;4936251;29;20611;-49
2022/07/02 10:23:00;;;;;;;2.60;1.27;;;26.20;99.80;;;;;;4947597;29;20241;-51
2022/07/02 10:25:29;;;;;;;2.13;0.90;;;26.50;99.90;;;;;;4951186;29;20595;-51
2022/07/02 10:27:58;;;;;;;2.43;1.10;;;27.10;99.90;;;;;;4944676;29;20314;-50
2022/07/02 10:30:28;;;;;;;4.73;1.27;;;28.10;99.50;;;;;;4942755;29;20215;-51
2022/07/02 10:33:05;;;;;;;3.58;1.08;;;28.30;98.50;;;;;;4947347;29;20447;-50
2022/07/02 10:35:34;;;;;;;2.43;0.87;;;28.30;98.50;;;;;;4944189;29;20623;-50
2022/07/02 10:38:03;;;;;;;4.07;1.20;;;28.10;97.80;;;;;;4942877;29;20258;-50
2022/07/02 10:40:31;;;;;;;3.47;1.00;;;28.10;98.30;;;;;;4943843;29;20293;-51
2022/07/02 10:43:01;;;;;;;2.07;1.13;;;28.50;98.30;;;;;;4931103;29;20244;-49
2022/07/02 10:45:29;;;;;;;2.67;1.17;;;28.50;97.80;;;;;;4925679;29;20632;-50
2022/07/02 10:48:00;;;;;;;2.70;1.07;;;28.30;98.70;;;;;;4926814;29;20228;-50
2022/07/02 10:50:44;;;;;;;3.00;1.00;;;28.00;98.00;;;;;;4926879;29;20247;-50
2022/07/02 10:53:13;;;;;;;3.80;1.00;;;28.30;98.00;;;;;;4923979;29;20236;-51
2022/07/02 10:55:43;;;;;;;3.03;1.00;;;28.40;97.80;;;;;;4924746;29;20234;-50
2022/07/02 10:58:19;;;;;;;2.67;1.10;;;28.30;97.00;;;;;;4926026;29;20317;-52
2022/07/02 11:00:48;;;;;;;3.03;1.10;;;28.80;97.30;;;;;;4929147;29;20346;-52
2022/07/02 11:03:19;;;;;;;2.43;1.00;;;29.80;97.00;;;;;;4926126;29;20263;-52
2022/07/02 11:05:58;;;;;;;4.87;1.00;;;29.80;96.10;;;;;;4924247;29;20236;-50
2022/07/02 11:08:47;;;;;;;4.77;0.93;;;29.40;95.40;;;;;;4926486;29;20700;-49
2022/07/02 11:11:29;;;;;;;2.70;0.90;;;29.00;96.80;;;;;;4922680;29;20235;-49
2022/07/02 11:14:03;;;;;;;4.27;1.13;;;29.10;96.30;;;;;;4931968;29;20228;-51
2022/07/02 11:16:37;;;;;;;3.03;1.10;;;29.20;95.40;;;;;;4932545;29;20692;-50
2022/07/02 11:19:17;;;;;;;2.40;0.97;;;28.80;97.20;;;;;;4925539;29;20283;-51
2022/07/02 11:21:47;;;;;;;1.90;1.10;;;28.40;96.80;;;;;;4915964;29;20236;-52
2022/07/02 11:24:21;;;;;;;1.93;1.00;;;28.30;97.00;;;;;;4916225;29;20238;-50
2022/07/02 11:26:49;;;;;;;3.37;1.00;;;28.10;97.70;;;;;;4915897;29;20265;-50
2022/07/02 11:29:18;;;;;;;2.73;0.93;;;28.00;97.90;;;;;;4916095;29;20227;-50
2022/07/02 11:31:48;;;;;;;3.53;0.90;;;27.70;97.20;;;;;;4927012;29;20271;-51
2022/07/02 11:34:21;;;;;;;3.50;1.07;;;27.60;98.00;;;;;;4915957;29;20227;-48
2022/07/02 11:36:51;;;;;;;1.63;0.90;;;27.60;97.80;;;;;;4916058;29;20228;-50
2022/07/02 11:39:20;;;;;;;4.60;1.07;;;27.70;97.80;;;;;;4916069;29;20235;-51
2022/07/02 11:41:50;;;;;;;2.83;1.13;;;28.00;96.60;;;;;;4922123;29;20725;-50
2022/07/02 11:44:21;;;;;;;2.13;0.83;;;28.70;97.30;;;;;;4925738;29;20224;-50
2022/07/02 11:46:50;;;;;;;1.23;0.87;;;29.50;96.30;;;;;;4924909;29;20240;-50
2022/07/02 11:49:21;;;;;;;1.77;0.80;;;29.20;95.60;;;;;;4930713;29;20234;-52
2022/07/02 11:51:51;;;;;;;1.97;1.20;;;28.90;96.50;;;;;;4928778;29;20689;-50
2022/07/02 11:54:20;;;;;;;3.10;0.90;;;28.80;95.50;;;;;;4927874;29;20231;-50
2022/07/02 11:56:51;;;;;;;2.80;0.87;;;29.20;96.50;;;;;;4926946;29;20262;-50
2022/07/02 11:59:22;;;;;;;2.53;0.70;;;29.70;95.00;;;;;;4936611;29;20330;-52
2022/07/02 12:01:52;;;;;;;3.43;0.90;;;29.60;95.30;;;;;;4925399;29;20284;-50
2022/07/02 12:04:23;;;;;;;2.63;1.17;;;29.30;94.50;;;;;;4928761;29;20231;-51
2022/07/02 12:06:54;;;;;;;2.53;1.10;;;28.70;94.90;;;;;;4927580;29;20224;-50
2022/07/02 12:09:28;;;;;;;4.17;1.00;;;28.20;94.60;;;;;;4928613;29;20224;-51
2022/07/02 12:12:04;;;;;;;1.53;0.80;;;27.70;96.70;;;;;;4931478;29;20322;-51
2022/07/02 12:14:32;;;;;;;2.40;0.97;;;27.40;96.00;;;;;;4931788;29;20248;-51
2022/07/02 12:17:01;;;;;;;3.00;1.00;;;27.20;96.30;;;;;;4937841;29;20235;-51
2022/07/02 12:19:33;;;;;;;4.63;0.97;;;27.20;95.30;;;;;;4937994;29;20242;-50
2022/07/02 12:22:02;;;;;;;3.67;0.90;;;27.20;96.30;;;;;;4922782;29;20231;-50
2022/07/02 12:24:31;;;;;;;1.70;0.90;;;27.40;95.70;;;;;;4926839;29;20755;-49
2022/07/02 12:27:01;;;;;;;2.43;0.90;;;27.30;95.90;;;;;;4937464;29;20235;-52
2022/07/02 12:32:19;;;;;;;2.73;1.00;;;27.50;95.90;;;;;;4936618;29;20247;-49
2022/07/02 12:34:51;;;;;;;3.67;0.90;;;27.50;96.50;;;;;;4924241;29;20247;-49
2022/07/02 12:37:25;;;;;;;4.90;1.00;;;27.30;96.10;;;;;;4922304;29;20318;-50
2022/07/02 12:40:01;;;;;;;3.83;1.00;;;27.10;95.70;;;;;;4922179;29;20238;-49
2022/07/02 12:42:33;;;;;;;2.30;0.80;;;27.20;96.50;;;;;;4934594;29;20748;-50
2022/07/02 12:45:04;;;;;;;3.00;1.00;;;27.40;95.20;;;;;;4945794;29;20584;-52
2022/07/02 12:47:34;;;;;;;2.03;0.80;;;27.40;95.40;;;;;;4950722;29;20247;-49
2022/07/02 12:50:07;;;;;;;1.60;0.90;;;27.30;96.30;;;;;;4947884;29;20732;-50
2022/07/02 12:52:45;;;;;;;2.20;1.10;;;26.90;94.90;;;;;;4948043;29;20583;-53
2022/07/02 12:55:25;;;;;;;3.00;0.97;;;26.80;96.60;;;;;;4946201;29;20674;-54
2022/07/02 12:57:55;;;;;;;4.10;0.87;;;26.90;96.30;;;;;;4942298;29;20235;-52
2022/07/02 13:00:25;;;;;;;3.50;1.10;;;26.90;96.50;;;;;;4935354;29;20236;-50
2022/07/02 13:03:00;;;;;;;1.70;0.73;;;26.90;96.80;;;;;;4947745;29;20707;-51
2022/07/02 13:05:32;;;;;;;1.60;0.80;;;27.20;95.60;;;;;;4944156;29;20235;-51